Time;durP1;ratioP1;P1;durP2;ratioP2;P2;SDS_P1;SDS_P2;PMS_P1;PMS_P2;Temp;Humidity;BMP_temperature;BMP_pressure;BME280_temperature;BME280_humidity;BME280_pressure;Samples;Min_cycle;Max_cycle;Signal;HPM_P1;HPM_P2
2021/10/26 00:01:29;;;;;;;38.53;25.67;;;10.90;99.90;;;;;;12297500;28;20181;-86
2021/10/26 00:07:33;;;;;;;39.45;26.38;;;11.00;99.90;;;;;;12300133;28;20051;-85
2021/10/26 00:13:34;;;;;;;38.50;26.80;;;11.00;99.90;;;;;;12302578;28;20042;-85
2021/10/26 00:19:37;;;;;;;39.78;26.88;;;10.90;99.90;;;;;;12290660;28;20097;-86
2021/10/26 00:25:40;;;;;;;38.45;25.50;;;10.90;99.90;;;;;;12291955;28;20043;-85
2021/10/26 00:31:42;;;;;;;42.92;28.33;;;10.90;99.90;;;;;;12301131;28;20049;-85
2021/10/26 00:37:46;;;;;;;41.13;26.88;;;10.90;99.90;;;;;;12299213;28;20432;-87
2021/10/26 00:43:48;;;;;;;;;;;10.90;99.90;;;;;;12317711;28;20590;-86
2021/10/26 00:49:50;;;;;;;42.92;27.13;;;10.90;99.90;;;;;;12306462;28;19926;-86
2021/10/26 00:55:52;;;;;;;42.15;28.27;;;10.80;99.90;;;;;;12303849;28;20050;-86
2021/10/26 01:01:54;;;;;;;42.85;28.02;;;10.80;99.90;;;;;;12296131;28;20051;-86
2021/10/26 01:07:56;;;;;;;40.97;27.63;;;10.80;99.90;;;;;;12295989;28;20038;-85
2021/10/26 01:13:59;;;;;;;41.17;27.63;;;10.80;99.90;;;;;;12284606;28;20054;-86
2021/10/26 01:20:02;;;;;;;41.90;28.85;;;10.80;99.90;;;;;;12295314;28;20054;-86
2021/10/26 01:26:04;;;;;;;45.47;28.65;;;10.80;99.90;;;;;;12290863;28;20454;-86
2021/10/26 01:32:09;;;;;;;37.67;26.52;;;10.70;99.90;;;;;;12284643;28;20047;-86
2021/10/26 01:38:11;;;;;;;34.35;24.70;;;10.80;99.90;;;;;;12288607;28;20275;-86
2021/10/26 01:44:13;;;;;;;33.15;23.23;;;10.80;99.90;;;;;;12285275;28;20063;-85
2021/10/26 01:50:18;;;;;;;35.30;23.50;;;10.80;99.90;;;;;;12296926;28;20054;-85
2021/10/26 01:56:21;;;;;;;33.90;21.42;;;10.80;99.90;;;;;;12289302;28;20597;-85
2021/10/26 02:02:24;;;;;;;30.27;20.60;;;10.80;99.90;;;;;;12290879;28;20046;-85
2021/10/26 02:08:26;;;;;;;29.33;19.25;;;10.70;99.90;;;;;;12308272;28;20066;-87
2021/10/26 02:14:28;;;;;;;28.23;17.50;;;10.80;99.90;;;;;;12283528;28;20053;-86
2021/10/26 02:20:30;;;;;;;24.48;16.83;;;10.90;99.90;;;;;;12287667;28;20130;-86
2021/10/26 02:26:32;;;;;;;22.92;15.10;;;10.90;99.90;;;;;;12297916;28;20443;-85
2021/10/26 02:32:34;;;;;;;30.73;16.88;;;10.80;99.90;;;;;;12295784;28;20475;-85
2021/10/26 02:38:36;;;;;;;24.35;15.40;;;10.90;99.90;;;;;;12297311;28;20165;-85
2021/10/26 02:44:38;;;;;;;27.52;14.88;;;10.90;99.90;;;;;;12287544;28;20049;-86
2021/10/26 02:50:40;;;;;;;33.67;16.88;;;10.90;99.90;;;;;;12294968;28;20490;-85
2021/10/26 02:56:43;;;;;;;26.42;16.13;;;11.00;99.90;;;;;;12295275;28;20161;-85
2021/10/26 03:02:45;;;;;;;33.63;19.92;;;10.90;99.90;;;;;;12293163;28;20057;-85
2021/10/26 03:08:47;;;;;;;31.55;21.25;;;11.00;99.90;;;;;;12294968;28;20054;-87
2021/10/26 03:14:48;;;;;;;34.13;21.88;;;10.90;99.90;;;;;;12292855;28;20479;-86
2021/10/26 03:20:51;;;;;;;32.72;22.63;;;10.90;99.90;;;;;;12298692;28;20053;-86
2021/10/26 03:26:54;;;;;;;39.03;24.52;;;10.90;99.90;;;;;;12294268;28;20057;-86
2021/10/26 03:32:56;;;;;;;39.75;25.83;;;10.90;99.90;;;;;;12296401;28;20117;-86
2021/10/26 03:38:59;;;;;;;42.60;25.58;;;10.80;99.90;;;;;;12298071;28;20475;-86
2021/10/26 03:45:01;;;;;;;40.25;26.70;;;10.80;99.90;;;;;;12294557;28;20696;-85
2021/10/26 03:51:02;;;;;;;42.72;25.75;;;10.90;99.90;;;;;;12305590;28;20153;-86
2021/10/26 03:57:08;;;;;;;41.00;27.45;;;10.90;99.90;;;;;;12307393;28;20496;-86
2021/10/26 04:03:10;;;;;;;36.25;25.98;;;10.80;99.90;;;;;;12304772;28;20039;-86
2021/10/26 04:09:13;;;;;;;40.53;28.13;;;10.80;99.90;;;;;;12307710;28;20153;-86
2021/10/26 04:15:16;;;;;;;41.67;27.33;;;10.80;99.90;;;;;;12325038;28;20129;-87
2021/10/26 04:21:18;;;;;;;42.60;26.75;;;10.80;99.90;;;;;;12326970;28;20732;-85
2021/10/26 04:27:20;;;;;;;37.00;25.48;;;10.80;99.90;;;;;;12309726;28;20058;-86
2021/10/26 04:33:22;;;;;;;39.58;25.15;;;10.80;99.90;;;;;;12310654;28;20053;-85
2021/10/26 04:39:24;;;;;;;37.95;24.70;;;10.80;99.90;;;;;;12297065;28;20059;-85
2021/10/26 04:45:26;;;;;;;33.65;23.75;;;10.90;99.90;;;;;;12307163;28;20063;-87
2021/10/26 04:51:28;;;;;;;36.05;23.83;;;10.90;99.90;;;;;;12292071;28;20375;-87
2021/10/26 04:57:30;;;;;;;37.17;24.30;;;10.90;99.90;;;;;;12336180;28;20082;-87
2021/10/26 05:03:32;;;;;;;37.90;24.38;;;11.00;99.90;;;;;;12307345;28;20057;-86
2021/10/26 05:09:34;;;;;;;35.13;24.95;;;10.90;99.90;;;;;;12292367;28;20054;-86
2021/10/26 05:15:36;;;;;;;38.80;25.55;;;11.00;99.90;;;;;;12296516;28;20066;-86
2021/10/26 05:21:38;;;;;;;39.20;24.20;;;10.90;99.90;;;;;;12310436;28;20467;-86
2021/10/26 05:27:42;;;;;;;38.45;26.65;;;11.00;99.90;;;;;;12297917;28;20051;-86
2021/10/26 05:33:44;;;;;;;43.90;26.38;;;11.00;99.90;;;;;;12299744;28;20125;-87
2021/10/26 05:39:47;;;;;;;43.60;26.52;;;11.00;99.90;;;;;;12304214;28;20054;-87
2021/10/26 05:45:49;;;;;;;41.28;26.40;;;10.90;99.90;;;;;;12302207;28;20086;-87
2021/10/26 05:51:51;;;;;;;38.53;26.25;;;10.70;99.90;;;;;;12298715;28;20046;-86
2021/10/26 05:57:53;;;;;;;42.15;27.05;;;10.70;99.90;;;;;;12299460;28;20096;-85
2021/10/26 06:03:55;;;;;;;44.65;28.00;;;10.70;99.90;;;;;;12300474;28;20050;-86
2021/10/26 06:09:56;;;;;;;45.50;28.50;;;10.70;99.90;;;;;;12293573;28;20662;-85
2021/10/26 06:15:59;;;;;;;38.10;27.88;;;10.80;99.90;;;;;;12286739;28;20050;-87
2021/10/26 06:22:01;;;;;;;39.95;26.40;;;10.90;99.90;;;;;;12297069;28;20712;-85
2021/10/26 06:28:03;;;;;;;39.38;25.73;;;10.90;99.90;;;;;;12301182;28;20051;-85
2021/10/26 06:34:05;;;;;;;38.15;26.00;;;11.00;99.90;;;;;;12291818;28;20142;-86
2021/10/26 06:40:07;;;;;;;41.22;27.20;;;11.00;99.90;;;;;;12303205;28;20570;-86
2021/10/26 06:46:09;;;;;;;43.75;26.05;;;10.90;99.90;;;;;;12327387;28;20171;-86
2021/10/26 06:52:12;;;;;;;42.80;28.20;;;11.00;99.90;;;;;;12310999;28;20481;-86
2021/10/26 06:58:13;;;;;;;45.70;28.35;;;11.00;99.90;;;;;;12299764;28;20101;-85
2021/10/26 07:04:15;;;;;;;42.03;27.75;;;11.00;99.90;;;;;;12301096;28;20055;-85
2021/10/26 07:10:18;;;;;;;39.33;28.88;;;10.90;99.90;;;;;;12293949;28;20064;-86
2021/10/26 07:16:20;;;;;;;40.67;26.90;;;10.90;99.90;;;;;;12294003;28;20086;-85
2021/10/26 07:22:23;;;;;;;36.47;25.98;;;10.90;99.90;;;;;;12285139;28;20050;-86
2021/10/26 07:28:25;;;;;;;34.13;24.88;;;10.90;99.90;;;;;;12290273;28;20766;-86
2021/10/26 07:34:26;;;;;;;37.83;25.38;;;11.00;99.90;;;;;;12292391;28;20539;-86
2021/10/26 07:40:28;;;;;;;36.50;24.52;;;11.00;99.90;;;;;;12294371;28;20499;-85
2021/10/26 07:46:30;;;;;;;34.00;23.58;;;11.00;99.90;;;;;;12295980;28;20058;-85
2021/10/26 07:52:32;;;;;;;33.65;22.00;;;11.00;99.90;;;;;;12291021;28;20070;-85
2021/10/26 07:58:35;;;;;;;29.58;20.40;;;11.00;99.90;;;;;;12294875;28;20084;-85
2021/10/26 08:04:38;;;;;;;26.03;18.00;;;11.00;99.90;;;;;;12287230;28;20494;-85
2021/10/26 08:10:40;;;;;;;26.38;17.60;;;11.10;99.90;;;;;;12286438;28;20042;-85
2021/10/26 08:16:42;;;;;;;26.10;16.73;;;11.20;99.90;;;;;;12297143;28;20109;-85
2021/10/26 08:22:45;;;;;;;26.00;16.80;;;11.20;99.90;;;;;;12314722;28;20061;-86
2021/10/26 08:28:49;;;;;;;27.58;17.90;;;11.20;99.90;;;;;;12297547;28;20054;-85
2021/10/26 08:35:13;;;;;;;28.02;18.17;;;11.40;99.90;;;;;;12310440;28;20161;-85
2021/10/26 08:41:14;;;;;;;28.60;20.30;;;11.40;99.90;;;;;;12309767;28;20105;-86
2021/10/26 08:47:20;;;;;;;26.23;19.80;;;11.40;99.90;;;;;;12307476;28;20526;-85
2021/10/26 08:53:23;;;;;;;28.65;19.98;;;11.50;99.90;;;;;;12327080;28;20631;-85
2021/10/26 08:59:25;;;;;;;30.27;19.73;;;11.50;99.90;;;;;;12296611;28;20101;-86
2021/10/26 09:05:27;;;;;;;25.60;17.95;;;11.50;99.90;;;;;;12306604;28;20082;-85
2021/10/26 09:11:43;;;;;;;28.92;18.65;;;11.60;99.90;;;;;;12305523;28;20051;-85
2021/10/26 09:17:45;;;;;;;25.23;16.40;;;11.50;99.90;;;;;;12318712;28;21091;-86
2021/10/26 09:23:58;;;;;;;23.85;15.20;;;11.50;99.90;;;;;;12304344;28;20453;-85
2021/10/26 09:30:06;;;;;;;24.77;15.57;;;11.50;99.90;;;;;;12304793;28;20166;-85
2021/10/26 09:36:33;;;;;;;25.35;15.95;;;11.90;99.90;;;;;;12305885;28;20492;-85
2021/10/26 09:42:48;;;;;;;25.65;16.85;;;12.20;99.90;;;;;;12304085;28;20638;-85
2021/10/26 09:48:49;;;;;;;26.10;16.85;;;12.30;99.90;;;;;;12306607;28;20210;-85
2021/10/26 10:01:26;;;;;;;20.98;12.32;;;12.60;99.90;;;;;;12317070;28;20043;-85
2021/10/26 10:07:38;;;;;;;12.45;8.63;;;12.90;99.90;;;;;;12311777;28;20055;-84
2021/10/26 10:13:53;;;;;;;12.50;7.15;;;13.20;99.90;;;;;;12297009;28;20054;-85
2021/10/26 10:19:55;;;;;;;;;;;13.50;99.90;;;;;;12300048;28;20066;-85
2021/10/26 10:25:59;;;;;;;13.65;6.70;;;13.50;99.90;;;;;;12323122;28;20383;-86
2021/10/26 10:32:02;;;;;;;14.60;6.75;;;13.80;99.90;;;;;;12306359;28;20110;-85
2021/10/26 10:38:06;;;;;;;10.70;6.00;;;13.70;99.90;;;;;;12301856;28;20054;-85
2021/10/26 10:44:20;;;;;;;9.67;6.20;;;13.50;99.90;;;;;;12306368;28;21790;-85
2021/10/26 10:50:39;;;;;;;13.27;6.50;;;13.10;99.90;;;;;;12299602;28;20660;-85
2021/10/26 10:56:41;;;;;;;10.30;6.13;;;12.90;99.90;;;;;;12304811;28;20054;-85
2021/10/26 11:02:53;;;;;;;11.60;6.55;;;12.50;99.90;;;;;;12301432;28;20043;-85
2021/10/26 11:08:55;;;;;;;16.33;8.73;;;12.40;99.90;;;;;;12301511;28;20057;-85
2021/10/26 11:15:05;;;;;;;17.85;11.75;;;12.40;99.90;;;;;;12292502;28;20977;-86
2021/10/26 11:21:10;;;;;;;16.48;11.55;;;12.70;99.90;;;;;;12310020;28;20156;-85
2021/10/26 11:27:33;;;;;;;24.65;13.00;;;13.00;99.90;;;;;;12298610;28;20070;-85
2021/10/26 11:33:37;;;;;;;21.42;13.73;;;13.10;99.90;;;;;;12294963;28;20445;-84
2021/10/26 11:39:39;;;;;;;18.48;12.40;;;13.20;99.90;;;;;;12290383;28;20137;-84
2021/10/26 11:46:00;;;;;;;15.73;10.27;;;13.40;99.90;;;;;;12291750;28;20528;-85
2021/10/26 11:52:05;;;;;;;16.50;10.77;;;13.80;99.90;;;;;;12298112;28;20416;-85
2021/10/26 11:58:11;;;;;;;17.25;10.48;;;13.80;99.90;;;;;;12311030;28;20078;-85
2021/10/26 12:04:16;;;;;;;16.05;10.68;;;13.50;99.90;;;;;;12308463;28;20069;-85
2021/10/26 12:10:21;;;;;;;14.85;9.15;;;13.40;99.90;;;;;;12310499;28;20047;-84
2021/10/26 12:16:23;;;;;;;10.35;7.50;;;13.80;99.90;;;;;;12305719;28;20465;-85
2021/10/26 12:22:28;;;;;;;13.57;6.63;;;14.20;99.90;;;;;;12313747;28;20078;-85
2021/10/26 12:28:33;;;;;;;11.90;6.90;;;14.20;99.90;;;;;;12354110;28;20435;-85
2021/10/26 12:34:43;;;;;;;10.13;7.03;;;14.00;99.90;;;;;;12339807;28;20042;-85
2021/10/26 12:40:48;;;;;;;12.48;7.47;;;13.70;99.90;;;;;;12315927;28;20047;-86
2021/10/26 12:47:03;;;;;;;12.65;7.38;;;13.60;99.90;;;;;;12307110;28;20081;-85
2021/10/26 12:53:19;;;;;;;13.32;7.70;;;13.60;99.90;;;;;;12305846;28;20047;-85
2021/10/26 12:59:28;;;;;;;13.13;7.28;;;13.50;99.90;;;;;;12324953;28;20085;-85
2021/10/26 13:05:29;;;;;;;11.85;7.10;;;13.50;99.90;;;;;;12309748;28;20051;-86
2021/10/26 13:11:37;;;;;;;13.13;7.53;;;13.50;99.90;;;;;;12303087;28;20101;-85
2021/10/26 13:17:40;;;;;;;13.68;6.72;;;13.50;99.90;;;;;;12339264;28;20159;-84
2021/10/26 13:23:42;;;;;;;11.18;7.13;;;13.50;99.90;;;;;;12319120;28;21212;-85
2021/10/26 13:29:45;;;;;;;14.35;6.95;;;13.50;99.90;;;;;;12296834;28;20046;-86
2021/10/26 13:35:48;;;;;;;11.45;7.03;;;13.60;99.90;;;;;;12306412;28;20061;-86
2021/10/26 13:41:55;;;;;;;8.97;6.50;;;13.60;99.90;;;;;;12308978;28;20038;-85
2021/10/26 13:47:57;;;;;;;16.55;6.22;;;13.50;99.90;;;;;;12330732;28;20169;-86
2021/10/26 13:54:01;;;;;;;17.63;6.65;;;13.50;99.90;;;;;;12298788;28;20464;-85
2021/10/26 14:00:09;;;;;;;9.50;5.65;;;13.40;99.90;;;;;;12293335;28;20587;-85
2021/10/26 14:06:11;;;;;;;9.68;4.60;;;13.40;99.90;;;;;;12299596;28;20074;-85
2021/10/26 14:12:13;;;;;;;12.40;5.30;;;13.40;99.90;;;;;;12300393;28;20042;-86
2021/10/26 14:18:15;;;;;;;12.15;4.53;;;13.40;99.90;;;;;;12323593;28;20050;-85
2021/10/26 14:24:20;;;;;;;11.45;4.35;;;13.40;99.90;;;;;;12321022;28;20051;-85
2021/10/26 14:30:22;;;;;;;7.10;3.55;;;13.40;99.90;;;;;;12300799;28;20063;-85
2021/10/26 14:36:51;;;;;;;10.60;4.25;;;13.40;99.90;;;;;;12332022;28;20594;-85
2021/10/26 14:52:40;;;;;;;11.73;4.18;;;13.40;99.90;;;;;;12299615;28;20050;-85
2021/10/26 15:01:56;;;;;;;10.97;4.03;;;13.30;99.90;;;;;;12301385;28;20470;-85
2021/10/26 15:07:58;;;;;;;7.25;3.50;;;13.20;99.90;;;;;;12299641;28;20055;-84
2021/10/26 15:14:05;;;;;;;9.38;3.15;;;13.20;99.90;;;;;;12301136;28;20496;-85
2021/10/26 15:20:08;;;;;;;7.38;3.08;;;13.10;99.90;;;;;;12296007;28;20066;-84
2021/10/26 15:38:51;;;;;;;8.70;2.33;;;13.10;99.90;;;;;;12307875;28;20500;-86
2021/10/26 15:44:53;;;;;;;7.65;2.88;;;13.10;99.90;;;;;;12315870;28;20047;-85
2021/10/26 15:50:55;;;;;;;8.60;2.30;;;13.00;99.90;;;;;;12308819;28;20039;-86
2021/10/26 15:56:58;;;;;;;9.02;2.30;;;13.00;99.90;;;;;;12313920;28;20499;-85
2021/10/26 16:03:04;;;;;;;8.75;2.40;;;12.90;99.90;;;;;;12330341;28;20097;-86
2021/10/26 16:09:06;;;;;;;9.82;3.08;;;12.90;99.90;;;;;;12311004;28;20047;-84
2021/10/26 16:15:20;;;;;;;12.73;2.72;;;12.90;99.90;;;;;;12327513;28;20111;-85
2021/10/26 16:21:21;;;;;;;8.30;2.47;;;13.00;99.90;;;;;;12306100;28;20104;-85
2021/10/26 16:27:26;;;;;;;7.70;2.47;;;12.90;99.90;;;;;;12340398;28;20723;-85
2021/10/26 16:33:28;;;;;;;9.75;2.70;;;12.90;99.90;;;;;;12303506;28;20042;-86
2021/10/26 16:39:29;;;;;;;10.48;2.60;;;12.90;99.90;;;;;;12305840;28;20153;-86
2021/10/26 16:45:56;;;;;;;7.07;2.40;;;12.90;99.90;;;;;;12304482;28;20748;-87
2021/10/26 16:51:58;;;;;;;4.55;2.15;;;12.90;99.90;;;;;;12314671;28;20058;-86
2021/10/26 16:58:05;;;;;;;8.20;2.53;;;12.90;99.90;;;;;;12311503;28;20161;-86
2021/10/26 17:04:06;;;;;;;7.43;2.20;;;12.90;99.90;;;;;;12312929;28;20313;-86
2021/10/26 17:10:08;;;;;;;8.75;1.83;;;13.00;99.90;;;;;;12312269;28;20508;-85
2021/10/26 17:16:13;;;;;;;7.57;2.38;;;12.90;99.90;;;;;;12314417;28;20085;-86
2021/10/26 17:22:16;;;;;;;7.70;2.20;;;12.90;99.90;;;;;;12312022;28;20105;-85
2021/10/26 17:28:20;;;;;;;6.68;2.30;;;12.90;99.90;;;;;;12310576;28;20046;-86
2021/10/26 17:34:29;;;;;;;8.15;2.30;;;12.90;99.90;;;;;;12337324;28;20165;-85
2021/10/26 17:46:59;;;;;;;6.40;1.88;;;12.90;99.90;;;;;;12300801;28;20093;-85
2021/10/26 17:53:03;;;;;;;5.45;2.15;;;12.90;99.90;;;;;;12302329;28;20059;-85
2021/10/26 17:59:05;;;;;;;4.40;2.00;;;12.90;99.90;;;;;;12306763;28;20038;-87
2021/10/26 18:05:09;;;;;;;;;;;12.90;99.90;;;;;;12312664;28;20411;-85
2021/10/26 18:11:11;;;;;;;7.50;2.00;;;12.90;99.90;;;;;;12308509;28;19930;-86
2021/10/26 18:17:14;;;;;;;7.25;2.00;;;12.90;99.90;;;;;;12336899;28;20065;-86
2021/10/26 18:23:16;;;;;;;7.90;2.00;;;12.90;99.90;;;;;;12306653;28;20050;-85
2021/10/26 18:29:17;;;;;;;8.30;2.13;;;12.80;99.90;;;;;;12335897;28;20059;-85
2021/10/26 18:35:22;;;;;;;5.93;1.80;;;12.90;99.90;;;;;;12306754;28;20403;-86
2021/10/26 18:41:26;;;;;;;5.32;1.85;;;12.80;99.90;;;;;;12302658;28;20454;-85
2021/10/26 18:47:28;;;;;;;10.30;2.37;;;12.70;99.90;;;;;;12299395;28;20055;-86
2021/10/26 18:53:30;;;;;;;7.05;2.10;;;12.60;99.90;;;;;;12331401;28;20353;-86
2021/10/26 18:59:33;;;;;;;8.85;2.30;;;12.60;99.90;;;;;;12305845;28;20067;-85
2021/10/26 19:05:41;;;;;;;9.57;2.30;;;12.60;99.90;;;;;;12302328;28;20097;-86
2021/10/26 19:11:43;;;;;;;8.73;2.35;;;12.60;99.90;;;;;;12303437;28;20273;-84
2021/10/26 19:17:45;;;;;;;7.57;2.17;;;12.40;99.90;;;;;;12292549;28;20038;-87
2021/10/26 19:23:47;;;;;;;10.55;2.38;;;12.50;99.90;;;;;;12307514;28;20045;-86
2021/10/26 19:29:51;;;;;;;9.07;2.35;;;12.50;99.90;;;;;;12308568;28;20057;-86
2021/10/26 19:35:53;;;;;;;5.38;2.20;;;12.50;99.90;;;;;;12304682;28;20689;-85
2021/10/26 19:41:55;;;;;;;9.98;2.65;;;12.60;99.90;;;;;;12304739;28;20043;-86
2021/10/26 19:47:58;;;;;;;8.27;2.25;;;12.50;99.90;;;;;;12302681;28;20053;-85
2021/10/26 19:54:00;;;;;;;7.10;2.15;;;12.50;99.90;;;;;;12306878;28;20625;-86
2021/10/26 20:00:06;;;;;;;7.45;2.38;;;12.50;99.90;;;;;;12304161;28;20605;-85
2021/10/26 20:06:08;;;;;;;6.90;2.25;;;12.40;99.90;;;;;;12305806;28;21020;-85
2021/10/26 20:12:14;;;;;;;15.13;3.30;;;12.40;99.90;;;;;;12298591;28;20800;-87
2021/10/26 20:18:16;;;;;;;7.85;2.50;;;12.40;99.90;;;;;;12310085;28;20047;-85
2021/10/26 20:30:28;;;;;;;6.00;2.28;;;12.40;99.90;;;;;;12314676;28;21084;-86
2021/10/26 20:36:31;;;;;;;6.67;2.20;;;12.30;99.90;;;;;;12313648;28;20579;-85
2021/10/26 20:42:32;;;;;;;8.50;2.60;;;12.30;99.90;;;;;;12311729;28;20050;-85
2021/10/26 20:48:34;;;;;;;9.40;2.70;;;12.30;99.90;;;;;;12324465;28;20544;-85
2021/10/26 20:54:40;;;;;;;7.88;2.53;;;12.30;99.90;;;;;;12308549;28;20095;-85
2021/10/26 21:00:42;;;;;;;8.07;2.10;;;12.30;99.90;;;;;;12342790;28;20042;-87
2021/10/26 21:06:44;;;;;;;6.18;2.30;;;12.30;99.90;;;;;;12308408;28;20077;-85
2021/10/26 21:12:46;;;;;;;8.18;2.33;;;12.20;99.90;;;;;;12310382;28;20137;-86
2021/10/26 21:18:49;;;;;;;6.63;2.15;;;12.30;99.90;;;;;;12306345;28;20046;-85
2021/10/26 21:24:51;;;;;;;10.27;2.58;;;12.30;99.90;;;;;;12311709;28;20046;-87
2021/10/26 21:30:53;;;;;;;9.00;2.22;;;12.30;99.90;;;;;;12312595;28;20496;-85
2021/10/26 21:37:07;;;;;;;6.68;1.80;;;12.30;99.90;;;;;;12309042;28;20063;-87
2021/10/26 21:43:10;;;;;;;9.02;2.60;;;12.30;99.90;;;;;;12321066;28;20059;-86
2021/10/26 21:49:12;;;;;;;6.72;2.15;;;12.30;99.90;;;;;;12322049;28;20133;-85
2021/10/26 21:55:14;;;;;;;9.02;2.08;;;12.20;99.90;;;;;;12309889;28;20085;-85
2021/10/26 22:01:17;;;;;;;9.75;2.20;;;12.20;99.90;;;;;;12307329;28;20585;-86
2021/10/26 22:07:24;;;;;;;8.57;3.10;;;12.20;99.90;;;;;;12308999;28;20125;-86
2021/10/26 22:13:27;;;;;;;8.23;2.00;;;12.20;99.90;;;;;;12305197;28;20078;-86
2021/10/26 22:19:29;;;;;;;10.02;3.03;;;12.20;99.90;;;;;;12307154;28;20142;-87
2021/10/26 22:25:31;;;;;;;6.57;2.67;;;12.10;99.90;;;;;;12309043;28;20496;-85
2021/10/26 22:31:33;;;;;;;8.75;2.67;;;12.10;99.90;;;;;;12306471;28;20050;-86
2021/10/26 22:37:35;;;;;;;14.02;3.33;;;12.10;99.90;;;;;;12306471;28;20059;-84
2021/10/26 22:43:37;;;;;;;10.52;3.38;;;12.10;99.90;;;;;;12306804;28;21016;-85
2021/10/26 22:49:38;;;;;;;8.00;2.60;;;12.20;99.90;;;;;;12306851;28;20046;-85
2021/10/26 22:55:40;;;;;;;10.80;3.47;;;12.00;99.90;;;;;;12306390;28;20042;-85
2021/10/26 23:01:42;;;;;;;7.35;2.75;;;12.10;99.90;;;;;;12306868;28;20068;-83
2021/10/26 23:07:44;;;;;;;9.52;3.25;;;12.10;99.90;;;;;;12305517;28;20100;-85
2021/10/26 23:13:46;;;;;;;12.38;3.90;;;12.00;99.90;;;;;;12302690;28;20138;-85
2021/10/26 23:19:48;;;;;;;7.97;3.55;;;12.00;99.90;;;;;;12297790;28;20049;-85
2021/10/26 23:25:50;;;;;;;12.35;3.80;;;12.00;99.90;;;;;;12307224;28;20069;-85
2021/10/26 23:31:52;;;;;;;8.43;3.80;;;12.00;99.90;;;;;;12304871;28;20632;-86
2021/10/26 23:37:54;;;;;;;8.70;4.03;;;12.00;99.90;;;;;;12306904;28;20059;-86
2021/10/26 23:43:55;;;;;;;8.13;4.20;;;11.90;99.90;;;;;;12334874;28;20066;-86
2021/10/26 23:49:57;;;;;;;11.10;4.10;;;11.90;99.90;;;;;;12314733;28;20569;-86
2021/10/26 23:55:59;;;;;;;8.48;4.03;;;11.80;99.90;;;;;;12316194;28;20057;-85
